Time;durP1;ratioP1;P1;durP2;ratioP2;P2;SDS_P1;SDS_P2;PMS_P1;PMS_P2;Temp;Humidity;BMP_temperature;BMP_pressure;BME280_temperature;BME280_humidity;BME280_pressure;Samples;Min_cycle;Max_cycle;Signal;HPM_P1;HPM_P2
2022/01/08 00:00:27;;;;;;;13.90;9.50;;;2.30;99.90;;;;;;5023563;28;20176;-74
2022/01/08 00:02:54;;;;;;;9.90;8.20;;;2.30;99.90;;;;;;5028938;28;20283;-73
2022/01/08 00:05:20;;;;;;;9.37;7.83;;;2.20;99.90;;;;;;5025650;28;20208;-73
2022/01/08 00:07:46;;;;;;;10.60;8.53;;;2.30;99.90;;;;;;5021550;28;21260;-77
2022/01/08 00:10:12;;;;;;;12.97;8.57;;;2.10;99.90;;;;;;5025383;28;20221;-77
2022/01/08 00:12:38;;;;;;;12.67;8.57;;;2.20;99.90;;;;;;5030572;28;20336;-72
2022/01/08 00:15:06;;;;;;;10.77;8.50;;;2.10;99.90;;;;;;5026158;28;20643;-72
2022/01/08 00:17:33;;;;;;;14.30;8.90;;;2.10;99.90;;;;;;5022632;28;20331;-72
2022/01/08 00:19:59;;;;;;;10.40;7.97;;;2.10;99.90;;;;;;5023855;28;20215;-76
2022/01/08 00:22:24;;;;;;;11.33;8.37;;;2.10;99.90;;;;;;5028869;28;20219;-72
2022/01/08 00:24:53;;;;;;;10.77;7.83;;;2.00;99.90;;;;;;5029254;28;20200;-72
2022/01/08 00:27:20;;;;;;;11.87;8.67;;;2.00;99.90;;;;;;5028523;28;20183;-72
2022/01/08 00:29:45;;;;;;;11.60;9.10;;;2.00;99.90;;;;;;5025235;28;20200;-76
2022/01/08 00:32:11;;;;;;;12.17;8.80;;;2.00;99.90;;;;;;5022643;28;20212;-72
2022/01/08 00:34:36;;;;;;;11.07;8.23;;;2.00;99.90;;;;;;5020778;28;20679;-72
2022/01/08 00:37:02;;;;;;;12.93;8.77;;;2.00;99.90;;;;;;5021785;28;20222;-73
2022/01/08 00:39:27;;;;;;;12.90;9.23;;;1.90;99.90;;;;;;5020792;28;20806;-72
2022/01/08 00:41:53;;;;;;;10.27;8.07;;;2.00;99.90;;;;;;5037109;28;20246;-72
2022/01/08 00:44:18;;;;;;;11.43;8.30;;;2.00;99.90;;;;;;5030192;28;20216;-73
2022/01/08 00:46:44;;;;;;;10.23;8.33;;;2.00;99.90;;;;;;5031402;28;20220;-76
2022/01/08 00:49:10;;;;;;;12.43;9.47;;;2.00;99.90;;;;;;5029763;28;20234;-72
2022/01/08 00:51:35;;;;;;;10.03;8.27;;;2.10;99.90;;;;;;5029460;28;20296;-71
2022/01/08 00:54:01;;;;;;;13.37;9.57;;;2.00;99.90;;;;;;5031808;28;20169;-73
2022/01/08 00:56:26;;;;;;;11.30;8.50;;;2.00;99.90;;;;;;5029575;28;20298;-72
2022/01/08 00:58:52;;;;;;;11.40;8.97;;;2.00;99.90;;;;;;5026390;28;20231;-72
2022/01/08 01:01:17;;;;;;;12.43;9.03;;;2.10;99.90;;;;;;5026083;28;20292;-73
2022/01/08 01:03:43;;;;;;;11.90;9.13;;;2.10;99.90;;;;;;5029661;28;20283;-71
2022/01/08 01:06:08;;;;;;;10.87;8.70;;;2.10;99.90;;;;;;5030564;28;20607;-71
2022/01/08 01:08:34;;;;;;;12.20;9.73;;;2.20;99.90;;;;;;5029126;28;20207;-71
2022/01/08 01:11:00;;;;;;;11.53;9.27;;;2.20;99.90;;;;;;5031572;28;20283;-71
2022/01/08 01:13:26;;;;;;;11.17;9.40;;;2.30;99.90;;;;;;5029482;28;20207;-71
2022/01/08 01:15:51;;;;;;;14.07;10.43;;;2.30;99.90;;;;;;5031334;28;20463;-71
2022/01/08 01:18:17;;;;;;;12.53;9.80;;;2.20;99.90;;;;;;5032984;28;20196;-73
2022/01/08 01:20:43;;;;;;;12.13;10.27;;;2.20;99.90;;;;;;5037352;28;20251;-74
2022/01/08 01:23:13;;;;;;;11.77;10.03;;;2.20;99.90;;;;;;5033254;28;20215;-75
2022/01/08 01:25:50;;;;;;;14.77;10.77;;;2.20;99.90;;;;;;5029391;28;20216;-75
2022/01/08 01:41:51;;;;;;;14.00;10.57;;;2.20;99.90;;;;;;5030518;28;20711;-72
2022/01/08 01:47:01;;;;;;;14.47;10.90;;;2.20;99.90;;;;;;5030832;28;20620;-72
2022/01/08 01:49:27;;;;;;;13.23;10.63;;;2.20;99.90;;;;;;5028675;28;20218;-72
2022/01/08 01:51:53;;;;;;;14.27;11.17;;;2.20;99.90;;;;;;5029508;28;20210;-72
2022/01/08 01:54:18;;;;;;;14.90;10.60;;;2.20;99.90;;;;;;5030405;28;20609;-72
2022/01/08 01:56:44;;;;;;;13.23;9.87;;;2.10;99.90;;;;;;5029673;28;20170;-75
2022/01/08 01:59:09;;;;;;;12.13;9.50;;;2.10;99.90;;;;;;5028118;28;20357;-73
2022/01/08 02:01:35;;;;;;;13.10;9.40;;;2.10;99.90;;;;;;5026270;28;20250;-74
2022/01/08 02:04:01;;;;;;;13.33;9.80;;;2.00;99.90;;;;;;5032279;28;20204;-72
2022/01/08 02:06:26;;;;;;;12.43;9.47;;;2.10;99.90;;;;;;5033965;28;20179;-72
2022/01/08 02:08:52;;;;;;;12.13;9.20;;;2.10;99.90;;;;;;5034761;28;20185;-72
2022/01/08 02:11:20;;;;;;;12.53;9.83;;;2.10;99.90;;;;;;5034692;28;20206;-72
2022/01/08 02:13:45;;;;;;;14.37;9.97;;;2.20;99.90;;;;;;5024850;28;20203;-72
2022/01/08 02:16:17;;;;;;;12.13;8.90;;;2.20;99.90;;;;;;5033263;28;20214;-75
2022/01/08 02:18:44;;;;;;;12.33;8.37;;;2.20;99.90;;;;;;5033728;28;20679;-72
2022/01/08 02:21:12;;;;;;;12.17;8.27;;;2.20;99.90;;;;;;5033823;28;20187;-72
2022/01/08 02:23:38;;;;;;;13.53;9.30;;;2.20;99.90;;;;;;5032750;28;20211;-74
2022/01/08 02:26:09;;;;;;;13.57;9.10;;;2.20;99.90;;;;;;5033013;28;20263;-74
2022/01/08 02:28:37;;;;;;;12.80;8.63;;;2.20;99.90;;;;;;5032221;28;20212;-72
2022/01/08 02:31:03;;;;;;;10.47;8.47;;;2.20;99.90;;;;;;5033359;28;20204;-72
2022/01/08 02:33:30;;;;;;;12.00;8.50;;;2.20;99.90;;;;;;5032337;28;20193;-72
2022/01/08 02:35:56;;;;;;;13.30;9.90;;;2.30;99.90;;;;;;5040400;28;20234;-72
2022/01/08 02:38:22;;;;;;;13.23;9.10;;;2.20;99.90;;;;;;5032311;28;20297;-72
2022/01/08 02:40:58;;;;;;;12.67;9.13;;;2.30;99.90;;;;;;5032628;28;20215;-72
2022/01/08 02:43:24;;;;;;;11.30;8.77;;;2.30;99.90;;;;;;5032548;28;20306;-72
2022/01/08 02:45:50;;;;;;;13.53;9.17;;;2.30;99.90;;;;;;5032895;28;20282;-72
2022/01/08 02:48:16;;;;;;;11.73;8.70;;;2.40;99.90;;;;;;5031864;28;20245;-72
2022/01/08 02:50:41;;;;;;;13.23;8.53;;;2.40;99.90;;;;;;5033205;28;20611;-72
2022/01/08 02:53:07;;;;;;;11.83;9.03;;;2.50;99.90;;;;;;5033612;28;20223;-72
2022/01/08 02:55:32;;;;;;;12.00;8.57;;;2.50;99.90;;;;;;5033515;28;20236;-72
2022/01/08 02:57:58;;;;;;;11.37;8.67;;;2.40;99.90;;;;;;5032108;28;20215;-72
2022/01/08 03:00:24;;;;;;;12.20;8.50;;;2.40;99.90;;;;;;5032259;28;20264;-74
2022/01/08 03:02:52;;;;;;;11.57;8.50;;;2.50;99.90;;;;;;5032320;28;20257;-72
2022/01/08 03:05:17;;;;;;;11.53;8.47;;;2.40;99.90;;;;;;5032425;28;20212;-72
2022/01/08 03:07:45;;;;;;;12.50;8.60;;;2.50;99.90;;;;;;5031782;28;20567;-73
2022/01/08 03:10:13;;;;;;;9.67;8.10;;;2.50;99.90;;;;;;5032303;28;20566;-72
2022/01/08 03:12:43;;;;;;;10.07;8.13;;;2.50;99.90;;;;;;5033049;28;20243;-72
2022/01/08 03:15:13;;;;;;;11.30;8.40;;;2.40;99.90;;;;;;5032946;28;20210;-72
2022/01/08 03:17:40;;;;;;;12.13;8.17;;;2.40;99.90;;;;;;5032505;28;20281;-72
2022/01/08 03:20:10;;;;;;;9.90;8.37;;;2.50;99.90;;;;;;5035030;28;20632;-72
2022/01/08 03:22:36;;;;;;;9.97;8.17;;;2.40;99.90;;;;;;5032506;28;20219;-72
2022/01/08 03:25:03;;;;;;;11.63;8.10;;;2.50;99.90;;;;;;5032246;28;20302;-72
2022/01/08 03:27:29;;;;;;;9.97;7.80;;;2.50;99.90;;;;;;5031945;28;20179;-72
2022/01/08 03:29:54;;;;;;;12.63;8.60;;;2.50;99.90;;;;;;5031911;28;20188;-72
2022/01/08 03:32:20;;;;;;;11.37;8.50;;;2.50;99.90;;;;;;5031809;28;20334;-73
2022/01/08 03:34:46;;;;;;;13.67;8.33;;;2.50;99.90;;;;;;5017770;28;20342;-75
2022/01/08 03:37:12;;;;;;;13.53;9.20;;;2.40;99.90;;;;;;5019450;28;20209;-74
2022/01/08 03:39:37;;;;;;;12.63;9.43;;;2.40;99.90;;;;;;5029766;28;20346;-72
2022/01/08 03:42:03;;;;;;;12.10;9.00;;;2.30;99.90;;;;;;5032029;28;20354;-71
2022/01/08 03:44:29;;;;;;;11.00;7.97;;;2.40;99.90;;;;;;5031447;28;20291;-72
2022/01/08 03:47:01;;;;;;;10.37;8.27;;;2.30;99.90;;;;;;5031129;28;20681;-72
2022/01/08 03:49:26;;;;;;;11.27;8.00;;;2.40;99.90;;;;;;5030843;28;20220;-76
2022/01/08 03:51:55;;;;;;;11.20;8.90;;;2.50;99.90;;;;;;5031475;28;20610;-72
2022/01/08 03:54:21;;;;;;;12.60;8.63;;;2.50;99.90;;;;;;5032373;28;20595;-77
2022/01/08 03:56:47;;;;;;;12.23;8.60;;;2.40;99.90;;;;;;5033078;28;20169;-74
2022/01/08 03:59:13;;;;;;;13.40;9.10;;;2.30;99.90;;;;;;5030825;28;20254;-72
2022/01/08 04:01:39;;;;;;;12.57;8.77;;;2.30;99.90;;;;;;5030816;28;20850;-72
2022/01/08 04:04:04;;;;;;;13.57;9.23;;;2.30;99.90;;;;;;5031259;28;20601;-72
2022/01/08 04:06:30;;;;;;;11.63;8.80;;;2.40;99.90;;;;;;5031367;28;20548;-72
2022/01/08 04:08:57;;;;;;;13.50;8.60;;;2.30;99.90;;;;;;5025514;28;20214;-72
2022/01/08 04:11:26;;;;;;;12.40;8.67;;;2.30;99.90;;;;;;5030982;28;20207;-72
2022/01/08 04:13:54;;;;;;;11.67;8.40;;;2.30;99.90;;;;;;5030512;28;20207;-74
2022/01/08 04:16:27;;;;;;;12.80;9.20;;;2.40;99.90;;;;;;5031031;28;20274;-71
2022/01/08 04:18:52;;;;;;;11.23;8.43;;;2.40;99.90;;;;;;5023205;28;20209;-76
2022/01/08 04:24:02;;;;;;;14.10;9.43;;;2.40;99.90;;;;;;5026019;28;20171;-72
2022/01/08 04:26:27;;;;;;;12.20;8.57;;;2.30;99.90;;;;;;5029489;28;20672;-72
2022/01/08 04:28:53;;;;;;;11.43;8.87;;;2.30;99.90;;;;;;5030082;28;20204;-75
2022/01/08 04:31:19;;;;;;;12.70;9.00;;;2.40;99.90;;;;;;5030583;28;20696;-72
2022/01/08 04:33:45;;;;;;;9.80;8.40;;;2.40;99.90;;;;;;5030224;28;20582;-72
2022/01/08 04:36:10;;;;;;;13.43;9.70;;;2.40;99.90;;;;;;5031184;28;20224;-73
2022/01/08 04:38:37;;;;;;;12.17;8.73;;;2.50;99.90;;;;;;5022406;28;20232;-72
2022/01/08 04:41:03;;;;;;;12.47;9.53;;;2.50;99.90;;;;;;5030463;28;20287;-71
2022/01/08 04:43:29;;;;;;;13.10;8.63;;;2.40;99.90;;;;;;5029959;28;20354;-74
2022/01/08 04:45:55;;;;;;;12.33;9.10;;;2.50;99.90;;;;;;5030458;28;20231;-73
2022/01/08 04:50:47;;;;;;;14.50;9.40;;;2.50;99.90;;;;;;5071353;22;20219;-72
2022/01/08 04:53:13;;;;;;;13.20;9.13;;;2.50;99.90;;;;;;5051617;28;20257;-72
2022/01/08 04:55:39;;;;;;;14.50;9.30;;;2.50;99.90;;;;;;5050648;28;20267;-73
2022/01/08 04:58:05;;;;;;;12.17;9.23;;;2.50;99.90;;;;;;5051376;28;20722;-73
2022/01/08 05:00:32;;;;;;;11.90;9.43;;;2.50;99.90;;;;;;5032090;28;20433;-72
2022/01/08 05:02:58;;;;;;;13.53;9.83;;;2.50;99.90;;;;;;5029982;28;20223;-72
2022/01/08 05:05:24;;;;;;;13.60;9.80;;;2.50;99.90;;;;;;5030105;28;20212;-72
2022/01/08 05:07:49;;;;;;;16.37;9.77;;;2.50;99.90;;;;;;5014148;28;20746;-72
2022/01/08 05:10:15;;;;;;;14.40;10.20;;;2.60;99.90;;;;;;5030119;28;20294;-72
2022/01/08 05:12:41;;;;;;;14.30;9.73;;;2.60;99.90;;;;;;5029932;28;20220;-72
2022/01/08 05:15:07;;;;;;;14.03;9.60;;;2.50;99.90;;;;;;5030672;28;20529;-73
2022/01/08 05:17:38;;;;;;;10.77;8.70;;;2.50;99.90;;;;;;5029553;28;20661;-73
2022/01/08 05:20:06;;;;;;;14.87;9.83;;;2.50;99.90;;;;;;5029894;28;20205;-73
2022/01/08 05:22:49;;;;;;;13.00;9.43;;;2.50;99.90;;;;;;5030856;28;20212;-73
2022/01/08 05:25:20;;;;;;;13.20;9.90;;;2.40;99.90;;;;;;5032782;28;20637;-73
2022/01/08 05:27:48;;;;;;;14.20;9.50;;;2.40;99.90;;;;;;5016104;28;20199;-74
2022/01/08 05:30:15;;;;;;;13.70;8.73;;;2.40;99.90;;;;;;5035863;28;20659;-73
2022/01/08 05:32:41;;;;;;;14.20;9.70;;;2.30;99.90;;;;;;5013355;28;20236;-74
2022/01/08 05:35:07;;;;;;;13.80;9.47;;;2.40;99.90;;;;;;5030038;28;20243;-74
2022/01/08 05:37:33;;;;;;;12.57;8.93;;;2.30;99.90;;;;;;5016103;28;20212;-73
2022/01/08 05:39:59;;;;;;;13.93;9.43;;;2.30;99.90;;;;;;5030237;28;20287;-73
2022/01/08 05:42:24;;;;;;;13.33;9.37;;;2.30;99.90;;;;;;5031466;28;20304;-73
2022/01/08 05:44:50;;;;;;;12.27;9.07;;;2.20;99.90;;;;;;5030936;28;20179;-73
2022/01/08 05:47:15;;;;;;;12.63;8.87;;;2.20;99.90;;;;;;5022038;28;20638;-73
2022/01/08 05:49:41;;;;;;;11.97;9.03;;;2.20;99.90;;;;;;5032573;28;20703;-74
2022/01/08 05:52:07;;;;;;;14.47;9.83;;;2.20;99.90;;;;;;5033176;28;20215;-74
2022/01/08 05:54:34;;;;;;;14.47;9.40;;;2.10;99.90;;;;;;5050801;28;20686;-73
2022/01/08 05:56:59;;;;;;;13.90;9.87;;;2.10;99.90;;;;;;5033737;28;20171;-73
2022/01/08 05:59:26;;;;;;;15.87;10.33;;;2.20;99.90;;;;;;5033611;28;20233;-73
2022/01/08 06:01:56;;;;;;;15.40;9.67;;;2.30;99.90;;;;;;5033719;28;20296;-74
2022/01/08 06:04:22;;;;;;;17.10;9.60;;;2.30;99.90;;;;;;5032875;28;20214;-73
2022/01/08 06:06:48;;;;;;;13.10;9.10;;;2.40;99.90;;;;;;5043032;28;20291;-73
2022/01/08 06:09:14;;;;;;;16.77;10.20;;;2.30;99.90;;;;;;5032826;28;20215;-73
2022/01/08 06:11:40;;;;;;;13.50;8.23;;;2.30;99.90;;;;;;5033520;28;20260;-75
2022/01/08 06:14:06;;;;;;;13.63;8.50;;;2.40;99.90;;;;;;5050848;28;20217;-73
2022/01/08 06:16:34;;;;;;;15.10;9.70;;;2.40;99.90;;;;;;5025416;28;20210;-73
2022/01/08 06:19:02;;;;;;;12.83;9.33;;;2.40;99.90;;;;;;5032470;28;20273;-73
2022/01/08 06:21:28;;;;;;;14.87;9.63;;;2.40;99.90;;;;;;5042654;28;20602;-73
2022/01/08 06:23:54;;;;;;;13.33;9.30;;;2.40;99.90;;;;;;5033175;28;20267;-73
2022/01/08 06:26:19;;;;;;;11.77;8.90;;;2.50;99.90;;;;;;5032730;28;20560;-73
2022/01/08 06:28:45;;;;;;;15.47;10.40;;;2.50;99.90;;;;;;5024169;28;20673;-73
2022/01/08 06:31:10;;;;;;;14.90;8.83;;;2.60;99.90;;;;;;5025954;28;20219;-73
2022/01/08 06:33:36;;;;;;;15.27;9.67;;;2.60;99.90;;;;;;5030650;28;20219;-73
2022/01/08 06:36:01;;;;;;;12.37;8.70;;;2.60;99.90;;;;;;5051274;28;20190;-73
2022/01/08 06:38:27;;;;;;;12.83;9.60;;;2.70;99.90;;;;;;5031915;28;20298;-73
2022/01/08 06:40:52;;;;;;;13.27;9.77;;;2.60;99.90;;;;;;5027878;28;20204;-73
2022/01/08 06:43:18;;;;;;;13.83;9.83;;;2.70;99.90;;;;;;5046010;28;20224;-74
2022/01/08 06:45:43;;;;;;;13.90;9.20;;;2.70;99.90;;;;;;5029049;28;20205;-73
2022/01/08 06:48:09;;;;;;;15.20;10.17;;;2.70;99.90;;;;;;5039358;28;20191;-73
2022/01/08 06:50:34;;;;;;;13.90;9.40;;;2.70;99.90;;;;;;5034110;28;20275;-75
2022/01/08 06:53:00;;;;;;;15.83;8.70;;;2.70;99.90;;;;;;5035375;28;20344;-71
2022/01/08 06:55:26;;;;;;;13.50;10.23;;;2.70;99.90;;;;;;5035506;28;20294;-73
2022/01/08 06:57:54;;;;;;;14.87;9.97;;;2.80;99.90;;;;;;5053550;28;20199;-72
2022/01/08 07:00:20;;;;;;;16.63;9.73;;;2.80;99.90;;;;;;5036163;28;20254;-73
2022/01/08 07:02:45;;;;;;;12.27;9.10;;;2.80;99.90;;;;;;5027835;28;20684;-73
2022/01/08 07:05:11;;;;;;;13.93;9.67;;;2.80;99.90;;;;;;5043937;28;20310;-73
2022/01/08 07:07:36;;;;;;;12.27;8.97;;;2.80;99.90;;;;;;5034510;28;20636;-72
2022/01/08 07:10:02;;;;;;;13.27;9.47;;;2.80;99.90;;;;;;5028043;28;20219;-74
2022/01/08 07:12:28;;;;;;;13.97;9.10;;;2.80;99.90;;;;;;5048680;28;20191;-74
2022/01/08 07:14:54;;;;;;;11.57;8.77;;;2.90;99.90;;;;;;5028752;28;20256;-73
2022/01/08 07:17:19;;;;;;;12.47;9.13;;;2.80;99.90;;;;;;5018879;28;20220;-73
2022/01/08 07:19:45;;;;;;;14.30;9.80;;;2.90;99.90;;;;;;5034327;28;20280;-74
2022/01/08 07:22:10;;;;;;;15.70;8.90;;;2.80;99.90;;;;;;5029920;28;20223;-72
2022/01/08 07:24:36;;;;;;;13.03;9.30;;;2.90;99.90;;;;;;5029909;28;20224;-73
2022/01/08 07:27:01;;;;;;;13.13;8.90;;;2.80;99.90;;;;;;5029346;28;20218;-74
2022/01/08 07:29:27;;;;;;;14.47;9.70;;;2.80;99.90;;;;;;5025351;28;20242;-73
2022/01/08 07:31:52;;;;;;;14.07;9.33;;;2.80;99.90;;;;;;5053777;28;20209;-72
2022/01/08 07:34:18;;;;;;;15.07;10.73;;;2.80;99.90;;;;;;5048136;28;20757;-73
2022/01/08 07:36:43;;;;;;;14.53;9.60;;;2.80;99.90;;;;;;5031724;28;20286;-72
2022/01/08 07:39:09;;;;;;;12.57;8.80;;;2.70;99.90;;;;;;5034772;28;20573;-72
2022/01/08 07:41:34;;;;;;;12.80;8.63;;;2.70;99.90;;;;;;5029201;28;20304;-72
2022/01/08 07:44:00;;;;;;;12.57;8.60;;;2.80;99.90;;;;;;5034640;28;20299;-72
2022/01/08 07:46:25;;;;;;;14.00;8.47;;;2.80;99.90;;;;;;5026252;28;20221;-72
2022/01/08 07:48:51;;;;;;;12.93;9.83;;;2.80;99.90;;;;;;5045092;28;20268;-73
2022/01/08 07:51:16;;;;;;;13.47;9.67;;;2.80;99.90;;;;;;5030727;28;20264;-72
2022/01/08 07:53:42;;;;;;;12.80;8.90;;;2.80;99.90;;;;;;5025803;28;20212;-72
2022/01/08 07:56:07;;;;;;;14.73;8.83;;;2.80;99.90;;;;;;5034016;28;20211;-73
2022/01/08 07:58:33;;;;;;;13.67;8.47;;;2.80;99.90;;;;;;5017817;28;20584;-72
2022/01/08 08:00:58;;;;;;;16.33;9.70;;;2.80;99.90;;;;;;5031853;28;20267;-73
2022/01/08 08:03:24;;;;;;;15.27;9.33;;;2.80;99.90;;;;;;5047963;28;20214;-72
2022/01/08 08:05:50;;;;;;;11.37;9.00;;;2.90;99.90;;;;;;5049537;28;20194;-73
2022/01/08 08:08:18;;;;;;;14.47;8.67;;;2.90;99.90;;;;;;5031883;28;20215;-72
2022/01/08 08:10:47;;;;;;;15.10;9.10;;;2.90;99.90;;;;;;5027937;28;20219;-70
2022/01/08 08:13:13;;;;;;;13.47;9.43;;;3.00;99.90;;;;;;5025815;28;20276;-72
2022/01/08 08:15:39;;;;;;;14.70;9.13;;;3.00;99.90;;;;;;5048153;28;20625;-72
2022/01/08 08:18:05;;;;;;;13.07;9.37;;;2.90;99.90;;;;;;5030394;28;20266;-73
2022/01/08 08:20:30;;;;;;;12.30;8.77;;;2.80;99.90;;;;;;5030124;28;20258;-70
2022/01/08 08:22:56;;;;;;;14.07;9.80;;;2.90;99.90;;;;;;5045013;28;20226;-72
2022/01/08 08:25:21;;;;;;;14.23;9.50;;;2.80;99.90;;;;;;5043579;28;20227;-72
2022/01/08 08:27:47;;;;;;;15.70;9.60;;;2.90;99.90;;;;;;5051453;28;20207;-72
2022/01/08 08:30:12;;;;;;;13.63;9.17;;;3.00;99.90;;;;;;5018570;28;20212;-73
2022/01/08 08:32:39;;;;;;;12.77;9.70;;;2.90;99.90;;;;;;5025310;28;20207;-73
2022/01/08 08:35:05;;;;;;;12.13;9.43;;;2.90;99.90;;;;;;5031073;28;20293;-73
2022/01/08 08:37:33;;;;;;;20.23;10.03;;;2.90;99.90;;;;;;5050230;28;20217;-73
2022/01/08 08:39:58;;;;;;;12.73;9.00;;;2.90;99.90;;;;;;5027302;28;20216;-73
2022/01/08 08:42:24;;;;;;;13.33;9.60;;;2.90;99.90;;;;;;5034124;28;20598;-73
2022/01/08 08:44:49;;;;;;;13.07;9.27;;;2.90;99.90;;;;;;5034399;28;20643;-72
2022/01/08 08:47:15;;;;;;;16.30;9.80;;;2.90;99.90;;;;;;5026187;28;20638;-73
2022/01/08 08:49:40;;;;;;;13.23;8.60;;;2.90;99.90;;;;;;5033358;28;20668;-73
2022/01/08 08:52:06;;;;;;;14.77;9.27;;;3.00;99.90;;;;;;5032462;28;20207;-73
2022/01/08 08:54:32;;;;;;;14.37;9.60;;;3.10;99.90;;;;;;5023186;28;20600;-72
2022/01/08 08:56:57;;;;;;;13.30;8.77;;;3.10;99.90;;;;;;5052116;28;20288;-73
2022/01/08 08:59:24;;;;;;;15.03;9.83;;;3.20;99.90;;;;;;5032977;28;20216;-73
2022/01/08 09:01:49;;;;;;;17.60;9.00;;;3.20;99.90;;;;;;5029349;28;20596;-73
2022/01/08 09:04:15;;;;;;;13.30;9.77;;;3.30;99.90;;;;;;5014574;28;20211;-72
2022/01/08 09:06:40;;;;;;;12.80;8.60;;;3.30;99.90;;;;;;5013746;28;20223;-72
2022/01/08 09:09:06;;;;;;;15.53;10.20;;;3.30;99.90;;;;;;5027731;28;20247;-73
2022/01/08 09:11:32;;;;;;;14.30;9.23;;;3.30;99.90;;;;;;5023921;28;20640;-73
2022/01/08 09:13:58;;;;;;;13.97;9.63;;;3.30;99.90;;;;;;5012811;28;20199;-73
2022/01/08 09:16:23;;;;;;;13.63;9.33;;;3.40;99.90;;;;;;5026854;28;20209;-73
2022/01/08 09:18:50;;;;;;;15.10;9.93;;;3.50;99.90;;;;;;5011928;28;20209;-74
2022/01/08 09:21:15;;;;;;;13.80;8.97;;;3.50;99.90;;;;;;5032843;28;20189;-72
2022/01/08 09:23:41;;;;;;;12.93;9.03;;;3.40;99.90;;;;;;5014516;28;20197;-74
2022/01/08 09:26:07;;;;;;;15.80;9.00;;;3.50;99.90;;;;;;5013900;28;20612;-72
2022/01/08 09:28:33;;;;;;;13.60;9.33;;;3.60;99.90;;;;;;5009805;28;20570;-72
2022/01/08 09:30:59;;;;;;;12.47;9.43;;;3.60;99.90;;;;;;5012624;28;20773;-72
2022/01/08 09:33:25;;;;;;;9.93;8.03;;;3.70;99.90;;;;;;5013445;28;20186;-72
2022/01/08 09:35:52;;;;;;;15.93;10.20;;;3.60;99.90;;;;;;5029585;28;20181;-72
2022/01/08 09:38:18;;;;;;;14.70;9.23;;;3.60;99.90;;;;;;5028885;28;20201;-72
2022/01/08 09:40:44;;;;;;;10.80;8.03;;;3.70;99.90;;;;;;5032773;28;20209;-73
2022/01/08 09:43:10;;;;;;;13.03;9.60;;;3.80;99.90;;;;;;5032884;28;20239;-73
2022/01/08 09:45:35;;;;;;;17.47;10.00;;;3.90;99.90;;;;;;5017730;28;20687;-73
2022/01/08 09:48:01;;;;;;;13.47;9.53;;;4.10;99.90;;;;;;5045634;28;20265;-73
2022/01/08 09:50:26;;;;;;;16.60;10.17;;;4.20;99.90;;;;;;5048242;28;20625;-73
2022/01/08 09:52:57;;;;;;;14.07;9.07;;;4.20;99.90;;;;;;5020563;28;20245;-73
2022/01/08 09:55:23;;;;;;;12.07;8.67;;;4.20;99.90;;;;;;5031409;28;20198;-73
2022/01/08 09:57:49;;;;;;;12.40;8.90;;;4.10;99.90;;;;;;5028382;28;20764;-73
2022/01/08 10:00:16;;;;;;;16.30;9.40;;;3.90;99.90;;;;;;5033325;28;20293;-73
2022/01/08 10:02:44;;;;;;;12.97;9.37;;;3.70;99.90;;;;;;5024746;28;20246;-74
2022/01/08 10:05:12;;;;;;;12.03;8.80;;;3.70;99.90;;;;;;5050607;28;20214;-73
2022/01/08 10:07:38;;;;;;;13.83;8.83;;;3.60;99.90;;;;;;5050324;28;20210;-75
2022/01/08 10:10:12;;;;;;;12.93;9.60;;;3.50;99.90;;;;;;5050179;28;20283;-72
2022/01/08 10:12:57;;;;;;;14.70;9.83;;;3.50;99.90;;;;;;5047730;28;20206;-73
2022/01/08 10:18:20;;;;;;;22.07;11.37;;;3.20;99.90;;;;;;5039398;28;20227;-72
2022/01/08 10:20:49;;;;;;;13.33;9.53;;;3.30;99.90;;;;;;5050472;28;20220;-72
2022/01/08 10:23:20;;;;;;;19.67;10.30;;;3.40;99.90;;;;;;5033522;28;20640;-73
2022/01/08 10:26:04;;;;;;;13.83;10.20;;;3.50;99.90;;;;;;5054171;28;20207;-73
2022/01/08 10:28:41;;;;;;;14.80;9.33;;;3.50;99.90;;;;;;5035644;28;20232;-75
2022/01/08 10:31:09;;;;;;;15.60;10.43;;;3.70;99.90;;;;;;5028395;28;20201;-71
2022/01/08 10:33:35;;;;;;;15.17;9.73;;;3.80;99.90;;;;;;5053557;28;20227;-71
2022/01/08 10:36:00;;;;;;;14.07;10.47;;;4.00;99.90;;;;;;5054796;28;20258;-72
2022/01/08 10:38:29;;;;;;;14.03;10.33;;;4.20;99.90;;;;;;5053089;28;20233;-72
2022/01/08 10:40:57;;;;;;;11.90;8.80;;;4.30;99.90;;;;;;5053964;28;20220;-75
2022/01/08 10:43:31;;;;;;;13.67;9.90;;;4.50;99.90;;;;;;5055521;28;20235;-72
2022/01/08 10:46:09;;;;;;;12.03;8.83;;;4.60;99.90;;;;;;5044895;28;20699;-71
2022/01/08 10:48:35;;;;;;;15.20;8.90;;;4.70;99.90;;;;;;5051520;28;20245;-72
2022/01/08 10:51:14;;;;;;;13.60;9.13;;;4.60;99.90;;;;;;5046019;28;20192;-72
2022/01/08 10:54:01;;;;;;;13.50;9.20;;;4.60;99.90;;;;;;5042554;28;20210;-72
2022/01/08 10:56:32;;;;;;;12.33;8.90;;;4.70;99.90;;;;;;5053419;28;20210;-72
2022/01/08 10:59:13;;;;;;;15.13;8.57;;;4.90;99.90;;;;;;5053059;28;20782;-71
2022/01/08 11:02:11;;;;;;;12.33;8.57;;;5.10;99.90;;;;;;5053668;28;20303;-72
2022/01/08 11:04:39;;;;;;;11.77;8.93;;;5.10;99.90;;;;;;5027096;28;20225;-73
2022/01/08 11:07:12;;;;;;;14.17;8.23;;;5.30;99.90;;;;;;5053528;28;20238;-72
2022/01/08 11:09:39;;;;;;;12.43;8.97;;;5.10;99.90;;;;;;5052102;28;20704;-73
2022/01/08 11:12:07;;;;;;;13.50;9.03;;;5.10;99.90;;;;;;5064126;23;20247;-73
2022/01/08 11:14:59;;;;;;;11.33;8.63;;;5.10;99.90;;;;;;5052764;28;20211;-72
2022/01/08 11:17:36;;;;;;;13.33;8.97;;;5.20;99.90;;;;;;5053368;28;20206;-75
2022/01/08 11:20:04;;;;;;;10.93;8.43;;;5.40;99.90;;;;;;5046151;28;20214;-77
2022/01/08 11:22:31;;;;;;;15.43;8.17;;;5.30;99.90;;;;;;5042928;28;20345;-77
2022/01/08 11:25:00;;;;;;;12.90;8.17;;;5.10;99.90;;;;;;5051519;28;20202;-73
2022/01/08 11:28:05;;;;;;;11.97;8.13;;;4.80;99.90;;;;;;5050116;28;20178;-75
2022/01/08 11:30:37;;;;;;;10.30;7.77;;;4.70;99.90;;;;;;5034903;28;20234;-74
2022/01/08 11:33:14;;;;;;;11.13;7.47;;;4.40;99.90;;;;;;5037078;28;20538;-75
2022/01/08 11:35:42;;;;;;;10.10;7.60;;;4.40;99.90;;;;;;5043255;28;20214;-75
2022/01/08 11:38:10;;;;;;;10.60;7.37;;;4.40;99.90;;;;;;5052991;28;20233;-72
2022/01/08 11:40:37;;;;;;;10.67;7.67;;;4.30;99.90;;;;;;5052889;28;20206;-73
2022/01/08 11:43:04;;;;;;;13.10;7.83;;;4.30;99.90;;;;;;5053084;28;20222;-74
2022/01/08 11:45:33;;;;;;;12.30;7.90;;;4.30;99.90;;;;;;5053083;28;20188;-72
2022/01/08 11:48:02;;;;;;;11.70;7.63;;;4.40;99.90;;;;;;5052903;28;20168;-75
2022/01/08 11:50:29;;;;;;;12.13;8.30;;;4.40;99.90;;;;;;5052403;28;20294;-74
2022/01/08 11:53:23;;;;;;;10.33;7.20;;;4.40;99.90;;;;;;5052871;28;20208;-74
2022/01/08 11:55:56;;;;;;;12.40;7.10;;;4.40;99.90;;;;;;5052403;28;20203;-74
2022/01/08 11:58:27;;;;;;;14.57;7.67;;;4.40;99.90;;;;;;5031417;28;20264;-74
2022/01/08 12:00:54;;;;;;;11.33;7.30;;;4.50;99.90;;;;;;5034795;28;20251;-72
2022/01/08 12:03:31;;;;;;;9.47;6.93;;;4.50;99.90;;;;;;5048536;28;20206;-72
2022/01/08 12:06:31;;;;;;;13.20;7.03;;;4.50;99.90;;;;;;5044004;28;20180;-73
2022/01/08 12:09:16;;;;;;;13.27;7.17;;;4.50;99.90;;;;;;5052050;28;20205;-73
2022/01/08 12:11:42;;;;;;;10.10;6.80;;;4.40;99.90;;;;;;5034488;28;20234;-71
2022/01/08 12:14:15;;;;;;;11.50;7.67;;;4.40;99.90;;;;;;5051756;28;20218;-72
2022/01/08 12:16:43;;;;;;;8.97;6.83;;;4.40;99.90;;;;;;5037895;28;20677;-76
2022/01/08 12:19:25;;;;;;;13.43;7.07;;;4.30;99.90;;;;;;5037334;28;20237;-73
2022/01/08 12:21:51;;;;;;;10.13;6.57;;;4.40;99.90;;;;;;5053490;28;20583;-72
2022/01/08 12:24:26;;;;;;;10.73;7.27;;;4.20;99.90;;;;;;5051897;28;20178;-71
2022/01/08 12:26:53;;;;;;;10.17;7.27;;;4.40;99.90;;;;;;5052568;28;20185;-71
2022/01/08 12:29:40;;;;;;;12.03;7.30;;;4.60;99.90;;;;;;5051228;28;20207;-77
2022/01/08 12:32:32;;;;;;;10.37;6.70;;;4.70;99.90;;;;;;5049155;28;20230;-73
2022/01/08 12:35:15;;;;;;;12.00;6.67;;;4.80;99.90;;;;;;5035550;28;20217;-73
2022/01/08 12:37:43;;;;;;;10.40;7.17;;;4.80;99.90;;;;;;5051802;28;20288;-73
2022/01/08 12:40:30;;;;;;;9.43;6.83;;;4.70;99.90;;;;;;5051674;28;20775;-75
2022/01/08 12:42:56;;;;;;;12.80;6.77;;;4.70;99.90;;;;;;5022625;28;20252;-73
2022/01/08 12:45:34;;;;;;;12.30;7.37;;;4.60;99.90;;;;;;5051159;28;20615;-73
2022/01/08 12:48:00;;;;;;;9.80;6.63;;;4.60;99.90;;;;;;5046477;28;20178;-78
2022/01/08 12:50:30;;;;;;;11.30;6.90;;;4.50;99.90;;;;;;5064348;28;20211;-76
2022/01/08 12:53:05;;;;;;;10.90;6.93;;;4.50;99.90;;;;;;5047905;28;20248;-74
2022/01/08 12:55:55;;;;;;;13.90;7.63;;;4.50;99.90;;;;;;5057854;28;20227;-74
2022/01/08 12:58:31;;;;;;;16.83;7.13;;;4.50;99.90;;;;;;5051937;28;20213;-77
2022/01/08 13:01:04;;;;;;;12.20;6.83;;;4.40;99.90;;;;;;5051848;28;20245;-76
2022/01/08 13:03:37;;;;;;;13.37;7.17;;;4.40;99.90;;;;;;5033390;28;20645;-74
2022/01/08 13:06:24;;;;;;;9.63;7.13;;;4.40;99.90;;;;;;5053312;28;20250;-79
2022/01/08 13:08:51;;;;;;;11.53;8.33;;;4.40;99.90;;;;;;5052485;28;20207;-79
2022/01/08 13:11:21;;;;;;;12.67;7.43;;;4.40;99.90;;;;;;5032996;28;20207;-73
2022/01/08 13:13:56;;;;;;;13.33;7.63;;;4.50;99.90;;;;;;5048571;28;20295;-75